Time;durP1;ratioP1;P1;durP2;ratioP2;P2;SDS_P1;SDS_P2;PMS_P1;PMS_P2;Temp;Humidity;BMP_temperature;BMP_pressure;BME280_temperature;BME280_humidity;BME280_pressure;Samples;Min_cycle;Max_cycle;Signal;HPM_P1;HPM_P2
2022/06/15 00:01:18;;;;;;;6.65;1.92;;;19.20;79.20;;;;;;5007205;28;20086;-85
2022/06/15 00:03:52;;;;;;;4.07;1.80;;;19.20;79.50;;;;;;4980696;28;20471;-85
2022/06/15 00:10:10;;;;;;;6.65;2.20;;;19.20;79.80;;;;;;5014613;28;20046;-84
2022/06/15 00:12:42;;;;;;;4.90;1.83;;;19.10;80.00;;;;;;4981428;28;20129;-84
2022/06/15 00:18:39;;;;;;;5.20;2.03;;;19.00;80.00;;;;;;5001792;28;20067;-84
2022/06/15 00:24:29;;;;;;;7.10;2.22;;;19.00;80.40;;;;;;4946831;29;20027;-84
2022/06/15 00:27:24;;;;;;;7.18;2.15;;;18.90;80.70;;;;;;4917604;29;20047;-84
2022/06/15 00:30:13;;;;;;;5.38;2.25;;;18.90;81.30;;;;;;4932830;29;20047;-86
2022/06/15 00:33:28;;;;;;;7.22;2.10;;;18.90;81.60;;;;;;4935288;29;20067;-85
2022/06/15 00:36:35;;;;;;;;;;;;;;;;;;;;;
2022/06/15 00:39:03;;;;;;;4.47;1.90;;;18.80;81.80;;;;;;4919410;29;20516;-86
2022/06/15 00:41:57;;;;;;;5.43;2.08;;;18.80;82.10;;;;;;4941280;28;20030;-86
2022/06/15 00:44:40;;;;;;;5.70;2.33;;;18.70;82.30;;;;;;4940409;29;20040;-86
2022/06/15 00:47:28;;;;;;;5.60;2.22;;;18.70;82.40;;;;;;4936155;29;20035;-85
2022/06/15 00:50:24;;;;;;;6.00;2.25;;;18.60;82.40;;;;;;4937983;29;20057;-86
2022/06/15 00:53:13;;;;;;;5.40;2.60;;;18.60;82.70;;;;;;4988850;28;20026;-86
2022/06/15 00:55:55;;;;;;;6.95;2.53;;;18.60;82.80;;;;;;4996376;28;20087;-87
2022/06/15 00:59:09;;;;;;;5.10;2.20;;;18.50;82.80;;;;;;4976363;28;20043;-86
2022/06/15 01:01:51;;;;;;;4.85;1.88;;;18.50;83.10;;;;;;5001426;28;20032;-86
2022/06/15 01:04:53;;;;;;;5.65;1.83;;;18.40;83.40;;;;;;5003764;28;20034;-84
2022/06/15 01:08:02;;;;;;;3.58;1.73;;;18.40;83.60;;;;;;4979768;28;20026;-84
2022/06/15 01:11:14;;;;;;;3.88;1.70;;;18.40;83.60;;;;;;5005680;28;20430;-85
2022/06/15 01:14:17;;;;;;;7.32;2.58;;;18.40;84.00;;;;;;4994458;28;20031;-85
2022/06/15 01:17:22;;;;;;;5.03;2.03;;;18.30;84.20;;;;;;5012590;28;20084;-85
2022/06/15 01:23:15;;;;;;;5.60;1.90;;;18.20;84.50;;;;;;5019262;28;20037;-85
2022/06/15 01:26:38;;;;;;;6.50;2.08;;;18.20;84.70;;;;;;5001491;28;20026;-85
2022/06/15 01:32:44;;;;;;;5.57;2.08;;;18.10;85.30;;;;;;5016363;28;20040;-86
2022/06/15 01:35:37;;;;;;;4.60;1.98;;;18.10;85.60;;;;;;5000801;28;20029;-85
2022/06/15 01:38:42;;;;;;;5.90;2.05;;;18.10;85.70;;;;;;5000390;28;20510;-86
2022/06/15 01:41:18;;;;;;;7.35;2.20;;;18.00;86.50;;;;;;4941607;29;20127;-85
2022/06/15 01:44:11;;;;;;;6.10;2.25;;;18.00;86.10;;;;;;4992116;28;20034;-85
2022/06/15 01:47:02;;;;;;;5.32;2.03;;;17.90;86.20;;;;;;4999765;28;20025;-86
2022/06/15 01:50:10;;;;;;;8.63;2.35;;;17.90;86.40;;;;;;5016478;28;20095;-86
2022/06/15 01:56:46;;;;;;;;;;;;;;;;;;;;;
2022/06/15 01:59:59;;;;;;;7.03;2.17;;;17.80;87.00;;;;;;5026849;28;20038;-85
2022/06/15 02:03:17;;;;;;;6.68;2.40;;;17.70;87.20;;;;;;4988994;28;20018;-86
2022/06/15 02:06:20;;;;;;;4.63;2.40;;;17.70;87.60;;;;;;5004673;28;20057;-86
2022/06/15 02:12:36;;;;;;;6.35;2.22;;;17.60;88.10;;;;;;5017442;28;20092;-86
2022/06/15 02:18:56;;;;;;;7.15;2.50;;;17.50;88.90;;;;;;5009641;28;20022;-85
2022/06/15 02:25:39;;;;;;;7.20;2.33;;;17.50;89.30;;;;;;4905666;29;20028;-86
2022/06/15 02:28:05;;;;;;;7.10;2.50;;;17.50;89.30;;;;;;4896767;29;20037;-86
2022/06/15 02:30:33;;;;;;;7.18;3.05;;;17.40;89.60;;;;;;4892246;29;20037;-85
2022/06/15 02:33:48;;;;;;;6.38;2.30;;;17.40;89.70;;;;;;4915252;29;20036;-86
2022/06/15 02:36:26;;;;;;;7.72;2.33;;;17.40;90.00;;;;;;4886168;29;20021;-87
2022/06/15 02:39:29;;;;;;;5.72;2.60;;;17.30;90.20;;;;;;4909317;29;20410;-86
2022/06/15 02:45:28;;;;;;;6.20;2.38;;;17.30;90.50;;;;;;4874282;29;20060;-85
2022/06/15 02:48:17;;;;;;;5.28;2.63;;;17.20;90.50;;;;;;4963733;28;20056;-86
2022/06/15 02:51:09;;;;;;;8.55;2.53;;;17.20;90.70;;;;;;4973619;28;20134;-86
2022/06/15 02:54:21;;;;;;;5.97;2.45;;;17.20;90.70;;;;;;4998887;28;20109;-86
2022/06/15 02:57:05;;;;;;;;;;;;;;;;;;;;;
2022/06/15 02:59:55;;;;;;;6.75;2.40;;;17.10;90.80;;;;;;4996224;28;20464;-87
2022/06/15 03:02:21;;;;;;;7.30;2.30;;;17.10;91.00;;;;;;4963935;28;20121;-87
2022/06/15 03:07:23;;;;;;;6.00;2.50;;;17.00;91.10;;;;;;5099194;23;20122;-85
2022/06/15 03:09:49;;;;;;;8.13;3.05;;;17.00;91.40;;;;;;5040003;28;20143;-85
2022/06/15 03:12:14;;;;;;;7.65;2.67;;;16.90;91.30;;;;;;5020139;28;20104;-85
2022/06/15 03:14:40;;;;;;;13.88;2.70;;;16.90;91.40;;;;;;5015767;28;20029;-85
2022/06/15 03:17:06;;;;;;;7.05;2.60;;;16.90;91.60;;;;;;5056080;28;20020;-85
2022/06/15 03:19:32;;;;;;;8.13;2.72;;;16.90;91.60;;;;;;5036353;28;20037;-85
2022/06/15 03:21:58;;;;;;;7.10;2.53;;;16.80;91.60;;;;;;5020765;28;20136;-85
2022/06/15 03:24:25;;;;;;;9.75;2.90;;;16.80;91.70;;;;;;5039972;28;20473;-85
2022/06/15 03:26:50;;;;;;;7.38;2.72;;;16.80;91.80;;;;;;5036455;28;20533;-85
2022/06/15 03:29:16;;;;;;;6.07;2.67;;;16.80;92.10;;;;;;5019550;28;20021;-85
2022/06/15 03:31:42;;;;;;;6.63;2.70;;;16.70;91.90;;;;;;5019891;28;20037;-85
2022/06/15 03:34:07;;;;;;;10.52;3.15;;;16.70;92.10;;;;;;5036659;28;20073;-85
2022/06/15 03:36:34;;;;;;;7.80;2.50;;;16.70;92.10;;;;;;5039547;28;20102;-85
2022/06/15 03:39:12;;;;;;;5.72;2.50;;;16.70;92.20;;;;;;5023331;28;20029;-85
2022/06/15 03:41:37;;;;;;;7.97;2.75;;;16.70;92.30;;;;;;5022417;28;20029;-85
2022/06/15 03:44:03;;;;;;;8.45;3.05;;;16.60;92.40;;;;;;5024763;28;20025;-85
2022/06/15 03:46:30;;;;;;;7.03;2.60;;;16.60;92.60;;;;;;5056136;28;20117;-85
2022/06/15 03:48:56;;;;;;;5.82;2.97;;;16.60;92.60;;;;;;5019608;28;20025;-85
2022/06/15 03:51:21;;;;;;;5.55;2.80;;;16.60;92.60;;;;;;5019339;28;20036;-85
2022/06/15 03:53:47;;;;;;;8.85;2.97;;;16.60;92.80;;;;;;5035848;28;20100;-85
2022/06/15 03:56:13;;;;;;;11.45;2.83;;;16.50;93.00;;;;;;5019199;28;20045;-85
2022/06/15 03:58:38;;;;;;;6.65;2.92;;;16.50;93.20;;;;;;5036181;28;20080;-85
2022/06/15 04:01:04;;;;;;;7.55;2.88;;;16.50;93.30;;;;;;5050738;28;20021;-85
2022/06/15 04:03:30;;;;;;;7.10;2.78;;;16.50;93.50;;;;;;5055927;28;20083;-85
2022/06/15 04:05:58;;;;;;;7.45;3.50;;;16.50;93.70;;;;;;5026147;28;20041;-85
2022/06/15 04:08:37;;;;;;;7.15;2.58;;;16.50;93.90;;;;;;5033418;28;20115;-85
2022/06/15 04:11:06;;;;;;;7.50;2.67;;;16.50;94.10;;;;;;5067029;28;20031;-85
2022/06/15 04:13:32;;;;;;;8.68;2.83;;;16.50;94.20;;;;;;5041201;28;20028;-85
2022/06/15 04:15:58;;;;;;;6.80;2.80;;;16.40;94.30;;;;;;5048449;28;20029;-85
2022/06/15 04:18:24;;;;;;;6.13;2.42;;;16.40;94.40;;;;;;5053789;28;20120;-86
2022/06/15 04:20:50;;;;;;;6.22;3.00;;;16.40;94.60;;;;;;5041404;28;20028;-85
2022/06/15 04:26:39;;;;;;;6.28;2.83;;;16.40;95.00;;;;;;5067972;28;20611;-85
2022/06/15 04:29:05;;;;;;;5.78;2.58;;;16.40;95.10;;;;;;5041101;28;20024;-85
2022/06/15 04:31:31;;;;;;;7.70;2.88;;;16.40;95.30;;;;;;5055691;28;20165;-85
2022/06/15 04:33:56;;;;;;;5.88;2.53;;;16.40;95.50;;;;;;5036015;28;20459;-85
2022/06/15 04:36:26;;;;;;;9.75;2.90;;;16.40;95.70;;;;;;5053744;28;20048;-85
2022/06/15 04:38:51;;;;;;;8.25;3.30;;;16.40;95.80;;;;;;5057784;28;20094;-85
2022/06/15 04:41:17;;;;;;;8.80;3.33;;;16.40;95.90;;;;;;5045646;28;20029;-85
2022/06/15 04:43:42;;;;;;;7.18;2.85;;;16.40;96.10;;;;;;5051898;28;20379;-85
2022/06/15 04:46:08;;;;;;;8.15;2.80;;;16.40;96.30;;;;;;5019766;28;20057;-86
2022/06/15 04:48:34;;;;;;;7.97;3.13;;;16.40;96.50;;;;;;5018821;28;20033;-85
2022/06/15 04:51:11;;;;;;;7.35;2.83;;;16.40;96.70;;;;;;5073024;28;20377;-84
2022/06/15 04:53:36;;;;;;;8.82;2.92;;;16.40;96.80;;;;;;5036656;28;20028;-85
2022/06/15 04:56:02;;;;;;;7.28;2.90;;;16.40;97.00;;;;;;5051778;28;20025;-85
2022/06/15 04:58:28;;;;;;;8.00;2.80;;;16.40;97.10;;;;;;5022721;28;20021;-85
2022/06/15 05:00:53;;;;;;;7.50;2.80;;;16.40;97.30;;;;;;5031777;28;20016;-85
2022/06/15 05:03:20;;;;;;;7.97;2.67;;;16.40;97.40;;;;;;5026028;28;20024;-84
2022/06/15 05:05:45;;;;;;;6.38;2.83;;;16.50;97.50;;;;;;5047878;28;20053;-85
2022/06/15 05:08:42;;;;;;;4.68;2.60;;;16.50;97.60;;;;;;5023366;28;20032;-85
2022/06/15 05:11:08;;;;;;;6.35;2.70;;;16.50;97.70;;;;;;5033673;28;20109;-85
2022/06/15 05:13:34;;;;;;;6.65;2.85;;;16.50;97.80;;;;;;5025699;28;20587;-84
2022/06/15 05:16:25;;;;;;;5.95;2.42;;;16.50;97.90;;;;;;5044761;28;20032;-84
2022/06/15 05:18:51;;;;;;;7.78;3.42;;;16.50;98.00;;;;;;5055880;28;20111;-85
2022/06/15 05:21:17;;;;;;;4.78;2.55;;;16.50;98.20;;;;;;5049020;28;20098;-85
2022/06/15 05:23:43;;;;;;;7.28;2.67;;;16.60;98.30;;;;;;5054117;28;20047;-85
2022/06/15 05:26:09;;;;;;;6.53;2.40;;;16.60;98.50;;;;;;5065650;28;20012;-85
2022/06/15 05:28:35;;;;;;;7.38;2.80;;;16.60;98.60;;;;;;5039593;28;20055;-85
2022/06/15 05:31:04;;;;;;;7.50;2.85;;;16.60;98.70;;;;;;5035770;28;20474;-85
2022/06/15 05:33:32;;;;;;;6.68;2.92;;;16.60;98.80;;;;;;5060143;28;20048;-86
2022/06/15 05:36:03;;;;;;;6.07;2.40;;;16.70;98.90;;;;;;5038557;28;20432;-85
2022/06/15 05:38:29;;;;;;;7.15;2.58;;;16.70;99.00;;;;;;5059222;28;20115;-86
2022/06/15 05:40:54;;;;;;;7.15;2.72;;;16.70;99.10;;;;;;5043510;28;20079;-85
2022/06/15 05:43:20;;;;;;;7.53;2.97;;;16.80;99.20;;;;;;5021565;28;20557;-85
2022/06/15 05:45:45;;;;;;;7.68;2.92;;;16.80;99.30;;;;;;5020914;28;20052;-85
2022/06/15 05:48:11;;;;;;;4.30;2.25;;;16.80;99.40;;;;;;5041525;28;20028;-86
2022/06/15 05:50:37;;;;;;;7.13;3.13;;;16.80;99.40;;;;;;5064734;28;20020;-86
2022/06/15 05:53:02;;;;;;;5.85;2.63;;;16.90;99.50;;;;;;5066895;28;20362;-85
2022/06/15 05:55:28;;;;;;;6.07;2.40;;;16.90;99.70;;;;;;5055474;28;20025;-86
2022/06/15 05:57:54;;;;;;;6.30;2.67;;;16.90;99.80;;;;;;5053450;28;20078;-85
2022/06/15 06:00:19;;;;;;;6.03;2.40;;;17.00;99.90;;;;;;5037308;28;20120;-86
2022/06/15 06:02:45;;;;;;;5.88;2.70;;;17.00;99.90;;;;;;5035848;28;20039;-85
2022/06/15 06:05:11;;;;;;;6.47;2.55;;;17.00;99.90;;;;;;5056784;28;20036;-85
2022/06/15 06:07:36;;;;;;;7.45;2.80;;;17.10;99.90;;;;;;5069086;28;20545;-85
2022/06/15 06:10:03;;;;;;;8.73;3.08;;;17.10;99.90;;;;;;5042171;28;20035;-86
2022/06/15 06:12:29;;;;;;;6.80;2.58;;;17.10;99.90;;;;;;5050996;28;20019;-85
2022/06/15 06:14:56;;;;;;;6.18;2.50;;;17.20;99.90;;;;;;5054042;28;20362;-85
2022/06/15 06:17:22;;;;;;;7.15;2.50;;;17.20;99.90;;;;;;5039411;28;20024;-85
2022/06/15 06:19:48;;;;;;;6.72;2.72;;;17.20;99.90;;;;;;5050305;28;20044;-85
2022/06/15 06:22:13;;;;;;;6.40;2.70;;;17.30;99.90;;;;;;5054802;28;20474;-85
2022/06/15 06:24:39;;;;;;;6.03;2.30;;;17.30;99.90;;;;;;5010994;28;20033;-85
2022/06/15 06:27:06;;;;;;;6.00;2.78;;;17.40;99.90;;;;;;5035750;28;20552;-85
2022/06/15 06:29:33;;;;;;;5.65;2.38;;;17.40;99.90;;;;;;5041588;28;20394;-85
2022/06/15 06:32:00;;;;;;;4.18;2.30;;;17.50;99.90;;;;;;5033842;28;20050;-85
2022/06/15 06:34:35;;;;;;;7.20;2.40;;;17.50;99.90;;;;;;5040856;28;20382;-85
2022/06/15 06:37:02;;;;;;;6.70;2.50;;;17.60;99.90;;;;;;5036716;28;20024;-85
2022/06/15 06:39:30;;;;;;;7.80;2.80;;;17.60;99.90;;;;;;5049336;28;20024;-85
2022/06/15 06:41:58;;;;;;;8.98;2.63;;;17.70;99.90;;;;;;5026224;28;20060;-86
2022/06/15 06:44:24;;;;;;;5.97;2.08;;;17.70;99.90;;;;;;5047219;28;20021;-85
2022/06/15 06:46:51;;;;;;;6.78;2.40;;;17.80;99.90;;;;;;5018760;28;20385;-85
2022/06/15 06:49:29;;;;;;;4.45;2.05;;;17.80;99.90;;;;;;5023403;28;20021;-85
2022/06/15 06:51:55;;;;;;;6.28;2.83;;;17.90;99.90;;;;;;5051008;28;20033;-86
2022/06/15 06:54:23;;;;;;;7.35;2.72;;;18.00;99.90;;;;;;5032150;28;20021;-85
2022/06/15 06:56:49;;;;;;;5.60;2.40;;;18.00;99.90;;;;;;5052004;28;20423;-86
2022/06/15 06:59:16;;;;;;;6.60;2.20;;;18.10;99.90;;;;;;5040240;28;20549;-86
2022/06/15 07:01:44;;;;;;;8.38;2.22;;;18.20;99.90;;;;;;5051510;28;20032;-85
2022/06/15 07:04:12;;;;;;;5.55;2.30;;;18.20;99.80;;;;;;5054603;28;20048;-86
2022/06/15 07:06:38;;;;;;;6.32;2.28;;;18.30;99.70;;;;;;5033756;28;20066;-85
2022/06/15 07:09:04;;;;;;;5.93;2.15;;;18.40;99.40;;;;;;5053778;28;20402;-86
2022/06/15 07:11:30;;;;;;;5.78;2.55;;;18.40;99.10;;;;;;5045403;28;20027;-86
2022/06/15 07:13:56;;;;;;;4.85;1.90;;;18.50;99.10;;;;;;5055399;28;20031;-86
2022/06/15 07:16:22;;;;;;;4.57;1.70;;;18.60;99.10;;;;;;5025413;28;20020;-86
2022/06/15 07:18:48;;;;;;;5.90;2.15;;;18.70;99.10;;;;;;5063042;28;20100;-86
2022/06/15 07:21:25;;;;;;;6.25;1.73;;;18.80;98.80;;;;;;5057417;28;20100;-86
2022/06/15 07:23:55;;;;;;;7.70;2.45;;;18.80;98.60;;;;;;5036110;28;20111;-85
2022/06/15 07:26:25;;;;;;;5.78;2.35;;;18.90;98.00;;;;;;5059910;28;20028;-86
2022/06/15 07:28:50;;;;;;;8.05;2.33;;;19.00;97.40;;;;;;5065580;28;20474;-86
2022/06/15 07:31:28;;;;;;;7.78;2.45;;;19.10;97.10;;;;;;5030955;28;20033;-85
2022/06/15 07:33:55;;;;;;;7.25;2.55;;;19.20;97.50;;;;;;5035935;28;20028;-86
2022/06/15 07:36:23;;;;;;;8.35;2.10;;;19.30;97.10;;;;;;5030690;28;20115;-85
2022/06/15 07:38:53;;;;;;;6.70;1.90;;;19.40;97.20;;;;;;5050842;28;20025;-86
2022/06/15 07:41:19;;;;;;;5.68;2.00;;;19.40;97.10;;;;;;5049940;28;20031;-86
2022/06/15 07:43:45;;;;;;;4.28;1.50;;;19.60;96.90;;;;;;5039341;28;20473;-86
2022/06/15 07:46:10;;;;;;;5.70;2.33;;;19.60;96.90;;;;;;5055747;28;20032;-86
2022/06/15 07:51:29;;;;;;;10.98;2.60;;;19.80;96.00;;;;;;5033961;28;20044;-86
2022/06/15 07:53:57;;;;;;;6.28;1.90;;;19.90;95.70;;;;;;5053936;28;20024;-85
2022/06/15 07:56:24;;;;;;;8.15;2.20;;;20.00;95.20;;;;;;5055417;28;20492;-85
2022/06/15 07:58:49;;;;;;;4.25;1.52;;;20.10;94.80;;;;;;5039081;28;20032;-84
2022/06/15 08:01:17;;;;;;;7.78;2.05;;;20.20;94.40;;;;;;5049160;28;20021;-85
2022/06/15 08:03:43;;;;;;;6.53;2.08;;;20.30;94.40;;;;;;5042230;28;20029;-84
2022/06/15 08:06:09;;;;;;;5.07;1.90;;;20.40;94.40;;;;;;5045369;28;20041;-85
2022/06/15 08:08:34;;;;;;;5.93;1.60;;;20.40;94.30;;;;;;5073243;28;20099;-85
2022/06/15 08:11:00;;;;;;;6.38;1.80;;;20.50;94.00;;;;;;5055236;28;20043;-85
2022/06/15 08:13:26;;;;;;;6.13;1.73;;;20.60;93.90;;;;;;5038651;28;20021;-85
2022/06/15 08:15:52;;;;;;;5.18;1.90;;;20.70;93.50;;;;;;5043515;28;20079;-85
2022/06/15 08:18:23;;;;;;;5.90;1.83;;;20.80;93.30;;;;;;5055138;28;20044;-85
2022/06/15 08:20:57;;;;;;;7.22;1.73;;;20.90;93.00;;;;;;5048185;28;20438;-85
2022/06/15 08:23:27;;;;;;;4.95;1.80;;;21.00;93.10;;;;;;5068334;28;20021;-84
2022/06/15 08:25:57;;;;;;;5.90;1.70;;;21.10;93.10;;;;;;5054283;28;20075;-85
2022/06/15 08:28:28;;;;;;;7.13;2.03;;;21.20;92.90;;;;;;5035716;28;20436;-85
2022/06/15 08:30:54;;;;;;;6.97;2.15;;;21.30;92.90;;;;;;5053221;28;20025;-85
2022/06/15 08:33:21;;;;;;;6.30;1.70;;;21.30;92.70;;;;;;5053322;28;20025;-85
2022/06/15 08:35:47;;;;;;;6.55;1.90;;;21.40;92.30;;;;;;5039336;28;20409;-84
2022/06/15 08:38:16;;;;;;;4.35;1.52;;;21.50;92.30;;;;;;5024898;28;20017;-83
2022/06/15 08:40:55;;;;;;;6.25;1.80;;;21.60;92.20;;;;;;5055496;28;20048;-83
2022/06/15 08:43:35;;;;;;;6.40;1.75;;;21.70;92.20;;;;;;5058102;28;20039;-83
2022/06/15 08:46:27;;;;;;;5.90;1.50;;;21.80;91.90;;;;;;5076696;28;20033;-83
2022/06/15 08:49:21;;;;;;;3.00;1.30;;;21.80;91.60;;;;;;5074254;28;20032;-83
2022/06/15 08:51:54;;;;;;;5.05;1.50;;;21.90;91.40;;;;;;5059668;28;20024;-84
2022/06/15 08:54:32;;;;;;;7.00;1.77;;;22.00;91.40;;;;;;5054827;28;20023;-83
2022/06/15 08:57:07;;;;;;;5.38;1.65;;;22.10;91.30;;;;;;5047489;28;20131;-83
2022/06/15 08:59:36;;;;;;;4.65;1.90;;;22.20;91.00;;;;;;5058432;28;20021;-84
2022/06/15 09:02:07;;;;;;;4.10;1.48;;;22.20;90.70;;;;;;5058686;28;20107;-83
2022/06/15 09:04:59;;;;;;;3.22;1.40;;;22.30;90.20;;;;;;5046418;28;20028;-83
2022/06/15 09:07:52;;;;;;;4.88;1.50;;;22.40;90.10;;;;;;5056257;28;20053;-83
2022/06/15 09:10:30;;;;;;;4.72;2.15;;;22.50;90.00;;;;;;5056733;28;20044;-83
2022/06/15 09:13:36;;;;;;;7.43;2.20;;;22.60;89.10;;;;;;5072067;28;20130;-83
2022/06/15 09:16:28;;;;;;;7.43;2.05;;;22.70;87.40;;;;;;5046377;28;20304;-83
2022/06/15 09:19:02;;;;;;;4.13;1.60;;;22.70;86.20;;;;;;5047772;28;20090;-84
2022/06/15 09:22:09;;;;;;;5.32;1.95;;;22.80;86.00;;;;;;5039635;28;20116;-84
2022/06/15 09:24:39;;;;;;;8.68;2.03;;;22.80;86.30;;;;;;5062626;28;20036;-84
2022/06/15 09:27:14;;;;;;;6.20;2.10;;;22.90;86.20;;;;;;5075863;28;20557;-84
2022/06/15 09:29:47;;;;;;;8.68;2.00;;;23.00;85.90;;;;;;5057707;28;20077;-84
2022/06/15 09:32:21;;;;;;;7.18;1.70;;;23.00;84.90;;;;;;5075918;28;20171;-84
2022/06/15 09:35:04;;;;;;;5.47;1.90;;;23.10;84.50;;;;;;5061528;28;20049;-84
2022/06/15 09:37:35;;;;;;;5.28;1.85;;;23.10;84.20;;;;;;5057914;28;20055;-84
2022/06/15 09:40:04;;;;;;;4.30;1.60;;;23.20;83.30;;;;;;5057979;28;20073;-84
2022/06/15 09:42:35;;;;;;;7.65;2.20;;;23.30;83.00;;;;;;5041637;28;20447;-84
2022/06/15 09:45:07;;;;;;;4.93;1.95;;;23.30;82.50;;;;;;5043983;28;20016;-84
2022/06/15 09:47:52;;;;;;;6.57;1.75;;;23.40;82.30;;;;;;5047446;28;20079;-84
2022/06/15 09:50:38;;;;;;;4.65;1.52;;;23.40;81.90;;;;;;5059900;28;20104;-84
2022/06/15 09:53:28;;;;;;;10.13;2.17;;;23.50;81.30;;;;;;5057842;28;20048;-84
2022/06/15 09:56:00;;;;;;;8.60;2.85;;;23.60;79.80;;;;;;5075725;28;20147;-83
2022/06/15 09:58:34;;;;;;;4.85;1.70;;;23.60;79.60;;;;;;5057433;28;20101;-84
2022/06/15 10:01:00;;;;;;;5.32;1.50;;;23.70;79.40;;;;;;5065978;28;20036;-84
2022/06/15 10:03:33;;;;;;;7.00;1.90;;;23.70;78.80;;;;;;5056069;28;20029;-84
2022/06/15 10:06:29;;;;;;;6.47;2.03;;;23.80;78.20;;;;;;5045792;28;20495;-83
2022/06/15 10:08:57;;;;;;;5.50;1.70;;;23.80;78.20;;;;;;5043065;28;20028;-84
2022/06/15 10:11:45;;;;;;;6.07;1.83;;;23.90;77.20;;;;;;5057444;28;20021;-84
2022/06/15 10:14:19;;;;;;;6.07;1.67;;;23.90;76.60;;;;;;5037385;28;20025;-83
2022/06/15 10:17:02;;;;;;;3.97;1.88;;;23.90;76.20;;;;;;5050765;28;20359;-84
2022/06/15 10:19:32;;;;;;;4.85;1.77;;;24.00;75.90;;;;;;5055162;28;20039;-83
2022/06/15 10:22:02;;;;;;;6.97;1.67;;;24.00;75.00;;;;;;5051417;28;20021;-83
2022/06/15 10:24:35;;;;;;;7.95;1.58;;;24.10;75.50;;;;;;5043892;28;20020;-84
2022/06/15 10:27:15;;;;;;;4.63;1.38;;;24.10;75.80;;;;;;5075515;28;20063;-84
2022/06/15 10:29:42;;;;;;;;;;;24.20;75.00;;;;;;5053374;28;20032;-85
2022/06/15 10:32:08;;;;;;;6.28;1.70;;;24.20;74.70;;;;;;5032778;28;19962;-85
2022/06/15 10:34:47;;;;;;;5.10;1.80;;;24.20;74.30;;;;;;5053914;28;20032;-85
2022/06/15 10:37:39;;;;;;;8.80;1.70;;;24.30;73.20;;;;;;5047997;28;20016;-85
2022/06/15 10:40:29;;;;;;;4.70;1.58;;;24.30;72.10;;;;;;5051830;28;20020;-86
2022/06/15 10:43:05;;;;;;;5.90;1.88;;;24.30;71.80;;;;;;5051527;28;20488;-86
2022/06/15 10:45:53;;;;;;;4.63;1.52;;;24.40;71.80;;;;;;5056797;28;20103;-85
2022/06/15 10:48:47;;;;;;;6.97;1.70;;;24.50;71.80;;;;;;5057085;28;20024;-85
2022/06/15 10:51:30;;;;;;;7.13;1.70;;;24.50;71.60;;;;;;5048794;28;20057;-85
2022/06/15 10:54:32;;;;;;;4.22;1.77;;;24.60;69.70;;;;;;5051044;28;20028;-85
2022/06/15 11:03:14;;;;;;;3.72;1.33;;;24.70;68.70;;;;;;5074650;28;20036;-85
2022/06/15 11:05:40;;;;;;;5.18;1.75;;;24.80;68.50;;;;;;5074103;28;20040;-85
2022/06/15 11:08:29;;;;;;;3.72;1.50;;;24.80;68.50;;;;;;5039943;28;20070;-85
2022/06/15 11:11:09;;;;;;;5.80;2.00;;;24.90;67.90;;;;;;5068208;28;20070;-85
2022/06/15 11:13:53;;;;;;;5.00;1.50;;;24.90;68.00;;;;;;5064906;28;20017;-85
2022/06/15 11:19:22;;;;;;;5.05;1.70;;;25.00;67.90;;;;;;5067914;28;20039;-85
2022/06/15 11:22:06;;;;;;;4.82;2.05;;;25.10;67.20;;;;;;5055955;28;20492;-86
2022/06/15 11:24:56;;;;;;;5.57;1.77;;;25.10;64.80;;;;;;5049607;28;20440;-85
2022/06/15 11:27:28;;;;;;;4.18;1.67;;;25.20;64.70;;;;;;5056016;28;20424;-85
2022/06/15 11:30:00;;;;;;;3.92;1.65;;;25.20;64.30;;;;;;5072892;28;20416;-85
2022/06/15 11:32:32;;;;;;;4.85;1.40;;;25.20;64.10;;;;;;5056041;28;20024;-86
2022/06/15 11:35:12;;;;;;;4.65;1.90;;;25.30;64.10;;;;;;5073904;28;20017;-85
2022/06/15 11:37:38;;;;;;;;;;;25.30;64.30;;;;;;5056401;28;20032;-85
2022/06/15 11:40:30;;;;;;;3.83;1.45;;;25.40;64.20;;;;;;5056101;28;19904;-86
2022/06/15 11:42:56;;;;;;;3.88;1.50;;;25.40;64.10;;;;;;5056295;28;20059;-85
2022/06/15 11:45:47;;;;;;;5.18;1.60;;;25.50;64.90;;;;;;5055786;28;20458;-85
2022/06/15 11:48:38;;;;;;;5.25;1.63;;;25.50;63.30;;;;;;5060366;28;20075;-85
2022/06/15 11:51:26;;;;;;;2.83;1.23;;;25.60;61.80;;;;;;5073190;28;20500;-85
2022/06/15 11:54:20;;;;;;;4.38;1.55;;;25.60;62.00;;;;;;5055719;28;20023;-86
2022/06/15 11:57:18;;;;;;;4.88;1.60;;;25.70;62.30;;;;;;5055012;28;20024;-86
2022/06/15 12:00:04;;;;;;;6.53;1.80;;;25.70;62.50;;;;;;5064734;28;20561;-86
2022/06/15 12:02:49;;;;;;;5.07;1.77;;;25.80;62.20;;;;;;5073361;28;20028;-85
2022/06/15 12:05:34;;;;;;;4.15;1.60;;;25.90;61.50;;;;;;5054991;28;20033;-85
2022/06/15 12:08:20;;;;;;;3.85;1.48;;;25.90;61.60;;;;;;5056496;28;20399;-84
2022/06/15 12:10:49;;;;;;;5.97;1.80;;;26.00;60.70;;;;;;5059499;28;20027;-84
2022/06/15 12:13:38;;;;;;;6.95;1.63;;;26.00;59.90;;;;;;5055194;28;20021;-84
2022/06/15 12:19:19;;;;;;;4.78;1.77;;;26.20;59.50;;;;;;5074793;28;20036;-84
2022/06/15 12:21:51;;;;;;;8.55;2.05;;;26.20;59.20;;;;;;5053046;28;20424;-84
2022/06/15 12:24:17;;;;;;;3.50;1.73;;;26.20;59.40;;;;;;5043449;28;20071;-84
2022/06/15 12:27:02;;;;;;;5.57;1.70;;;26.30;59.20;;;;;;5035297;28;20025;-86
2022/06/15 12:29:49;;;;;;;5.07;1.45;;;26.30;58.80;;;;;;5049139;28;20020;-85
2022/06/15 12:32:37;;;;;;;4.90;1.80;;;26.40;58.50;;;;;;5045986;28;20032;-85
2022/06/15 12:35:33;;;;;;;5.40;1.58;;;26.50;58.70;;;;;;5049095;28;20013;-85
2022/06/15 12:38:03;;;;;;;4.65;1.63;;;26.50;57.10;;;;;;5050600;28;20032;-84
2022/06/15 12:40:38;;;;;;;3.85;1.60;;;26.60;56.60;;;;;;5055153;28;20074;-85
2022/06/15 12:43:26;;;;;;;6.53;2.05;;;26.60;56.30;;;;;;5040940;28;20112;-85
2022/06/15 12:45:56;;;;;;;7.05;1.77;;;26.60;56.40;;;;;;5055036;28;20093;-85
2022/06/15 12:48:31;;;;;;;;;;;26.70;56.40;;;;;;5041439;28;20047;-84
2022/06/15 12:51:19;;;;;;;5.07;1.70;;;26.70;57.00;;;;;;5072928;28;19931;-84
2022/06/15 12:54:22;;;;;;;4.30;1.60;;;26.70;56.10;;;;;;5035813;28;20112;-85
2022/06/15 12:56:51;;;;;;;4.10;1.60;;;26.80;55.80;;;;;;5048791;28;20028;-84
2022/06/15 12:59:47;;;;;;;5.53;1.80;;;26.80;55.70;;;;;;5051182;28;20033;-83
2022/06/15 13:02:22;;;;;;;7.20;2.25;;;26.90;56.20;;;;;;5053119;28;20090;-84
2022/06/15 13:05:10;;;;;;;4.32;1.40;;;26.90;55.30;;;;;;5042577;28;20036;-83
2022/06/15 13:07:39;;;;;;;6.43;1.88;;;26.90;55.30;;;;;;5041263;28;20135;-84
2022/06/15 13:10:08;;;;;;;5.85;1.63;;;27.00;55.40;;;;;;5067718;28;20024;-83
2022/06/15 13:12:38;;;;;;;2.72;1.35;;;27.00;54.70;;;;;;5068916;28;20489;-83
2022/06/15 13:15:15;;;;;;;4.05;1.58;;;27.10;54.00;;;;;;5056080;28;20028;-83
2022/06/15 13:18:22;;;;;;;5.00;1.40;;;27.10;54.30;;;;;;5075138;28;20405;-83
2022/06/15 13:20:50;;;;;;;5.28;1.48;;;27.20;54.70;;;;;;5043719;28;20048;-83
2022/06/15 13:23:22;;;;;;;4.13;1.48;;;27.20;55.40;;;;;;5054446;28;20478;-84
2022/06/15 13:25:55;;;;;;;4.38;1.90;;;27.30;55.40;;;;;;5054078;28;20025;-82
2022/06/15 13:28:28;;;;;;;4.22;1.70;;;27.40;54.40;;;;;;5056418;28;20064;-83
2022/06/15 13:31:00;;;;;;;3.35;1.38;;;27.40;54.40;;;;;;5058229;28;20024;-83
2022/06/15 13:33:48;;;;;;;4.93;1.52;;;27.50;54.40;;;;;;5076203;28;20021;-83
2022/06/15 13:36:14;;;;;;;5.05;1.60;;;27.50;52.60;;;;;;5076144;28;20013;-83
2022/06/15 13:38:45;;;;;;;2.15;1.20;;;27.50;53.00;;;;;;5056767;28;20170;-82
2022/06/15 13:41:20;;;;;;;4.10;1.40;;;27.60;52.80;;;;;;5050052;28;20029;-83
2022/06/15 13:44:04;;;;;;;3.25;1.50;;;27.60;53.60;;;;;;5043140;28;20111;-83
2022/06/15 13:46:36;;;;;;;4.20;1.30;;;27.60;53.30;;;;;;5054637;28;20076;-83
2022/06/15 13:49:04;;;;;;;6.15;1.48;;;27.70;53.20;;;;;;5058006;28;20603;-83
2022/06/15 13:51:37;;;;;;;4.32;1.42;;;27.70;53.10;;;;;;5058058;28;20024;-83
2022/06/15 13:54:21;;;;;;;2.97;1.35;;;27.80;53.20;;;;;;5058086;28;20363;-83
2022/06/15 13:57:05;;;;;;;5.93;1.88;;;27.80;53.60;;;;;;5038171;28;20025;-83
2022/06/15 13:59:55;;;;;;;5.53;1.70;;;27.90;53.10;;;;;;5053226;28;20130;-83
2022/06/15 14:02:47;;;;;;;3.63;1.55;;;27.90;53.40;;;;;;5057733;28;20090;-83
2022/06/15 14:05:19;;;;;;;4.97;1.25;;;28.00;53.70;;;;;;5046045;28;20021;-83
2022/06/15 14:08:06;;;;;;;6.00;2.35;;;28.00;53.30;;;;;;5034173;28;20164;-82
2022/06/15 14:11:25;;;;;;;4.32;1.88;;;28.00;52.50;;;;;;5035205;28;20033;-82
2022/06/15 14:13:57;;;;;;;3.08;1.50;;;28.00;52.80;;;;;;5003179;28;20060;-82
2022/06/15 14:16:41;;;;;;;5.10;1.80;;;28.10;52.90;;;;;;5037224;28;20131;-83
2022/06/15 14:19:37;;;;;;;4.20;1.40;;;28.10;52.30;;;;;;5025441;28;20029;-83
2022/06/15 14:22:13;;;;;;;4.65;1.63;;;28.10;52.10;;;;;;5037161;28;20364;-85
2022/06/15 14:24:39;;;;;;;3.97;1.52;;;28.10;51.80;;;;;;5033997;28;20017;-83
2022/06/15 14:27:08;;;;;;;2.90;1.60;;;28.20;52.30;;;;;;5016770;28;20461;-83
2022/06/15 14:29:43;;;;;;;5.00;1.83;;;28.20;52.40;;;;;;5027365;28;20025;-82
2022/06/15 14:32:21;;;;;;;3.70;1.52;;;28.20;52.30;;;;;;5020372;28;20434;-82
2022/06/15 14:34:47;;;;;;;4.53;1.63;;;28.30;52.30;;;;;;5029273;28;20025;-83